sensor_id;sensor_type;location;lat;lon;timestamp;P1;durP1;ratioP1;P2;durP2;ratioP2
27632;SDS011;15046;50.930;13.334;2023-12-04T00:01:49;27.52;;;13.60;;
27632;SDS011;15046;50.930;13.334;2023-12-04T00:04:15;25.52;;;13.25;;
27632;SDS011;15046;50.930;13.334;2023-12-04T00:06:41;23.70;;;12.57;;
27632;SDS011;15046;50.930;13.334;2023-12-04T00:09:08;21.88;;;12.05;;
27632;SDS011;15046;50.930;13.334;2023-12-04T00:11:34;23.55;;;12.57;;
27632;SDS011;15046;50.930;13.334;2023-12-04T00:14:00;24.85;;;12.90;;
27632;SDS011;15046;50.930;13.334;2023-12-04T00:16:26;21.58;;;11.88;;
27632;SDS011;15046;50.930;13.334;2023-12-04T00:18:52;21.30;;;11.68;;
27632;SDS011;15046;50.930;13.334;2023-12-04T00:21:17;20.25;;;10.77;;
27632;SDS011;15046;50.930;13.334;2023-12-04T00:23:43;23.80;;;12.05;;
27632;SDS011;15046;50.930;13.334;2023-12-04T00:26:09;19.35;;;10.63;;
27632;SDS011;15046;50.930;13.334;2023-12-04T00:28:38;21.38;;;11.68;;
27632;SDS011;15046;50.930;13.334;2023-12-04T00:31:04;18.15;;;10.45;;
27632;SDS011;15046;50.930;13.334;2023-12-04T00:33:30;20.60;;;10.70;;
27632;SDS011;15046;50.930;13.334;2023-12-04T00:35:57;23.48;;;11.68;;
27632;SDS011;15046;50.930;13.334;2023-12-04T00:38:23;21.20;;;10.95;;
27632;SDS011;15046;50.930;13.334;2023-12-04T00:40:49;23.70;;;12.75;;
27632;SDS011;15046;50.930;13.334;2023-12-04T00:43:14;20.10;;;11.35;;
27632;SDS011;15046;50.930;13.334;2023-12-04T00:45:40;17.80;;;10.32;;
27632;SDS011;15046;50.930;13.334;2023-12-04T00:48:06;18.08;;;10.60;;
27632;SDS011;15046;50.930;13.334;2023-12-04T00:50:32;18.95;;;10.18;;
27632;SDS011;15046;50.930;13.334;2023-12-04T00:52:58;17.58;;;10.05;;
27632;SDS011;15046;50.930;13.334;2023-12-04T00:55:23;16.80;;;9.48;;
27632;SDS011;15046;50.930;13.334;2023-12-04T00:57:49;17.38;;;9.25;;
27632;SDS011;15046;50.930;13.334;2023-12-04T01:00:15;20.10;;;10.73;;
27632;SDS011;15046;50.930;13.334;2023-12-04T01:02:41;17.17;;;9.80;;
27632;SDS011;15046;50.930;13.334;2023-12-04T01:05:07;17.27;;;10.00;;
27632;SDS011;15046;50.930;13.334;2023-12-04T01:07:33;18.63;;;9.90;;
27632;SDS011;15046;50.930;13.334;2023-12-04T01:09:59;16.40;;;8.82;;
27632;SDS011;15046;50.930;13.334;2023-12-04T01:12:25;15.05;;;8.48;;
27632;SDS011;15046;50.930;13.334;2023-12-04T01:14:51;15.70;;;8.77;;
27632;SDS011;15046;50.930;13.334;2023-12-04T01:17:17;18.65;;;9.20;;
27632;SDS011;15046;50.930;13.334;2023-12-04T01:19:43;14.77;;;8.05;;
27632;SDS011;15046;50.930;13.334;2023-12-04T01:22:09;18.45;;;8.18;;
27632;SDS011;15046;50.930;13.334;2023-12-04T01:24:35;18.75;;;9.02;;
27632;SDS011;15046;50.930;13.334;2023-12-04T01:27:00;16.40;;;9.18;;
27632;SDS011;15046;50.930;13.334;2023-12-04T01:29:26;16.63;;;9.20;;
27632;SDS011;15046;50.930;13.334;2023-12-04T01:31:52;19.50;;;9.02;;
27632;SDS011;15046;50.930;13.334;2023-12-04T01:34:18;14.55;;;8.38;;
27632;SDS011;15046;50.930;13.334;2023-12-04T01:36:43;14.68;;;8.02;;
27632;SDS011;15046;50.930;13.334;2023-12-04T01:39:09;15.65;;;8.18;;
27632;SDS011;15046;50.930;13.334;2023-12-04T01:41:35;16.42;;;7.78;;
27632;SDS011;15046;50.930;13.334;2023-12-04T01:44:01;14.23;;;7.70;;
27632;SDS011;15046;50.930;13.334;2023-12-04T01:46:26;15.27;;;7.85;;
27632;SDS011;15046;50.930;13.334;2023-12-04T01:48:52;12.50;;;6.70;;
27632;SDS011;15046;50.930;13.334;2023-12-04T01:51:19;14.57;;;7.43;;
27632;SDS011;15046;50.930;13.334;2023-12-04T01:53:45;14.60;;;7.47;;
27632;SDS011;15046;50.930;13.334;2023-12-04T01:56:11;14.80;;;7.13;;
27632;SDS011;15046;50.930;13.334;2023-12-04T01:58:38;13.05;;;6.75;;
27632;SDS011;15046;50.930;13.334;2023-12-04T02:01:04;13.02;;;6.57;;
27632;SDS011;15046;50.930;13.334;2023-12-04T02:03:31;12.90;;;7.18;;
27632;SDS011;15046;50.930;13.334;2023-12-04T02:05:58;12.90;;;6.47;;
27632;SDS011;15046;50.930;13.334;2023-12-04T02:08:29;12.18;;;6.70;;
27632;SDS011;15046;50.930;13.334;2023-12-04T02:10:58;12.73;;;6.07;;
27632;SDS011;15046;50.930;13.334;2023-12-04T02:13:24;12.52;;;6.78;;
27632;SDS011;15046;50.930;13.334;2023-12-04T02:15:51;11.32;;;6.50;;
27632;SDS011;15046;50.930;13.334;2023-12-04T02:18:19;10.93;;;6.40;;
27632;SDS011;15046;50.930;13.334;2023-12-04T02:20:47;10.20;;;5.70;;
27632;SDS011;15046;50.930;13.334;2023-12-04T02:23:13;10.75;;;5.78;;
27632;SDS011;15046;50.930;13.334;2023-12-04T02:25:38;9.65;;;5.50;;
27632;SDS011;15046;50.930;13.334;2023-12-04T02:28:08;12.43;;;6.65;;
27632;SDS011;15046;50.930;13.334;2023-12-04T02:30:38;10.55;;;6.28;;
27632;SDS011;15046;50.930;13.334;2023-12-04T02:35:35;11.07;;;6.57;;
27632;SDS011;15046;50.930;13.334;2023-12-04T02:38:04;13.02;;;7.22;;
27632;SDS011;15046;50.930;13.334;2023-12-04T02:40:31;13.07;;;6.30;;
27632;SDS011;15046;50.930;13.334;2023-12-04T02:42:57;12.57;;;6.45;;
27632;SDS011;15046;50.930;13.334;2023-12-04T02:45:23;11.45;;;6.47;;
27632;SDS011;15046;50.930;13.334;2023-12-04T02:47:48;13.98;;;7.05;;
27632;SDS011;15046;50.930;13.334;2023-12-04T02:50:14;13.60;;;7.05;;
27632;SDS011;15046;50.930;13.334;2023-12-04T02:52:40;13.60;;;7.35;;
27632;SDS011;15046;50.930;13.334;2023-12-04T02:55:06;13.38;;;7.30;;
27632;SDS011;15046;50.930;13.334;2023-12-04T02:57:32;12.00;;;7.22;;
27632;SDS011;15046;50.930;13.334;2023-12-04T02:59:58;13.00;;;6.65;;
27632;SDS011;15046;50.930;13.334;2023-12-04T03:02:23;14.60;;;7.80;;
27632;SDS011;15046;50.930;13.334;2023-12-04T03:04:49;16.40;;;8.10;;
27632;SDS011;15046;50.930;13.334;2023-12-04T03:07:15;15.48;;;7.57;;
27632;SDS011;15046;50.930;13.334;2023-12-04T03:09:40;14.65;;;7.65;;
27632;SDS011;15046;50.930;13.334;2023-12-04T03:12:06;15.95;;;7.88;;
27632;SDS011;15046;50.930;13.334;2023-12-04T03:14:32;13.45;;;7.20;;
27632;SDS011;15046;50.930;13.334;2023-12-04T03:16:58;13.60;;;7.05;;
27632;SDS011;15046;50.930;13.334;2023-12-04T03:19:24;13.10;;;7.25;;
27632;SDS011;15046;50.930;13.334;2023-12-04T03:21:49;16.73;;;8.93;;
27632;SDS011;15046;50.930;13.334;2023-12-04T03:24:15;15.73;;;7.88;;
27632;SDS011;15046;50.930;13.334;2023-12-04T03:26:41;14.43;;;7.43;;
27632;SDS011;15046;50.930;13.334;2023-12-04T03:29:07;12.57;;;7.68;;
27632;SDS011;15046;50.930;13.334;2023-12-04T03:31:33;15.00;;;7.90;;
27632;SDS011;15046;50.930;13.334;2023-12-04T03:33:59;13.80;;;7.38;;
27632;SDS011;15046;50.930;13.334;2023-12-04T03:36:25;13.02;;;7.68;;
27632;SDS011;15046;50.930;13.334;2023-12-04T03:38:50;15.45;;;8.20;;
27632;SDS011;15046;50.930;13.334;2023-12-04T03:41:17;15.88;;;7.05;;
27632;SDS011;15046;50.930;13.334;2023-12-04T03:43:42;16.08;;;7.60;;
27632;SDS011;15046;50.930;13.334;2023-12-04T03:46:08;14.88;;;8.07;;
27632;SDS011;15046;50.930;13.334;2023-12-04T03:48:34;14.38;;;8.48;;
27632;SDS011;15046;50.930;13.334;2023-12-04T03:51:00;15.88;;;8.55;;
27632;SDS011;15046;50.930;13.334;2023-12-04T03:53:27;14.98;;;7.43;;
27632;SDS011;15046;50.930;13.334;2023-12-04T03:55:53;15.50;;;7.63;;
27632;SDS011;15046;50.930;13.334;2023-12-04T03:58:19;14.82;;;7.85;;
27632;SDS011;15046;50.930;13.334;2023-12-04T04:00:44;16.33;;;8.13;;
27632;SDS011;15046;50.930;13.334;2023-12-04T04:03:10;16.50;;;8.27;;
27632;SDS011;15046;50.930;13.334;2023-12-04T04:05:36;18.38;;;8.32;;
27632;SDS011;15046;50.930;13.334;2023-12-04T04:08:02;14.82;;;7.60;;
27632;SDS011;15046;50.930;13.334;2023-12-04T04:10:30;15.63;;;8.07;;
27632;SDS011;15046;50.930;13.334;2023-12-04T04:12:57;16.27;;;8.35;;
27632;SDS011;15046;50.930;13.334;2023-12-04T04:15:23;17.17;;;7.93;;
27632;SDS011;15046;50.930;13.334;2023-12-04T04:17:48;15.65;;;8.48;;
27632;SDS011;15046;50.930;13.334;2023-12-04T04:20:14;15.70;;;8.60;;
27632;SDS011;15046;50.930;13.334;2023-12-04T04:22:40;13.25;;;7.57;;
27632;SDS011;15046;50.930;13.334;2023-12-04T04:25:06;13.80;;;7.82;;
27632;SDS011;15046;50.930;13.334;2023-12-04T04:27:32;17.90;;;9.35;;
27632;SDS011;15046;50.930;13.334;2023-12-04T04:29:59;16.77;;;8.52;;
27632;SDS011;15046;50.930;13.334;2023-12-04T04:32:24;14.77;;;8.23;;
27632;SDS011;15046;50.930;13.334;2023-12-04T04:34:50;18.48;;;9.30;;
27632;SDS011;15046;50.930;13.334;2023-12-04T04:37:16;16.17;;;9.20;;
27632;SDS011;15046;50.930;13.334;2023-12-04T04:39:42;13.38;;;7.28;;
27632;SDS011;15046;50.930;13.334;2023-12-04T04:42:08;19.10;;;8.82;;
27632;SDS011;15046;50.930;13.334;2023-12-04T04:44:33;15.10;;;8.25;;
27632;SDS011;15046;50.930;13.334;2023-12-04T04:46:59;15.93;;;7.90;;
27632;SDS011;15046;50.930;13.334;2023-12-04T04:49:25;16.70;;;8.10;;
27632;SDS011;15046;50.930;13.334;2023-12-04T04:51:51;14.82;;;7.47;;
27632;SDS011;15046;50.930;13.334;2023-12-04T04:54:16;15.45;;;7.38;;
27632;SDS011;15046;50.930;13.334;2023-12-04T04:56:42;11.73;;;6.78;;
27632;SDS011;15046;50.930;13.334;2023-12-04T04:59:08;11.68;;;6.55;;
27632;SDS011;15046;50.930;13.334;2023-12-04T05:01:34;14.55;;;7.57;;
27632;SDS011;15046;50.930;13.334;2023-12-04T05:03:59;13.93;;;7.32;;
27632;SDS011;15046;50.930;13.334;2023-12-04T05:06:25;14.00;;;7.03;;
27632;SDS011;15046;50.930;13.334;2023-12-04T05:08:51;14.07;;;8.07;;
27632;SDS011;15046;50.930;13.334;2023-12-04T05:11:17;195.57;;;120.97;;
27632;SDS011;15046;50.930;13.334;2023-12-04T05:13:46;107.70;;;63.83;;
27632;SDS011;15046;50.930;13.334;2023-12-04T05:16:13;23.17;;;13.65;;
27632;SDS011;15046;50.930;13.334;2023-12-04T05:18:38;98.15;;;58.55;;
27632;SDS011;15046;50.930;13.334;2023-12-04T05:21:10;82.60;;;47.55;;
27632;SDS011;15046;50.930;13.334;2023-12-04T05:23:40;36.53;;;21.80;;
27632;SDS011;15046;50.930;13.334;2023-12-04T05:26:06;21.13;;;13.45;;
27632;SDS011;15046;50.930;13.334;2023-12-04T05:28:32;15.32;;;9.45;;
27632;SDS011;15046;50.930;13.334;2023-12-04T05:30:58;12.85;;;6.97;;
27632;SDS011;15046;50.930;13.334;2023-12-04T05:33:24;13.02;;;6.68;;
27632;SDS011;15046;50.930;13.334;2023-12-04T05:35:50;11.48;;;5.50;;
27632;SDS011;15046;50.930;13.334;2023-12-04T05:38:17;91.13;;;41.92;;
27632;SDS011;15046;50.930;13.334;2023-12-04T05:40:43;130.85;;;54.65;;
27632;SDS011;15046;50.930;13.334;2023-12-04T05:43:09;103.07;;;42.88;;
27632;SDS011;15046;50.930;13.334;2023-12-04T05:45:35;87.35;;;35.50;;
27632;SDS011;15046;50.930;13.334;2023-12-04T05:48:01;25.27;;;12.35;;
27632;SDS011;15046;50.930;13.334;2023-12-04T05:50:27;19.17;;;9.13;;
27632;SDS011;15046;50.930;13.334;2023-12-04T05:52:53;11.52;;;6.65;;
27632;SDS011;15046;50.930;13.334;2023-12-04T05:55:19;11.48;;;5.68;;
27632;SDS011;15046;50.930;13.334;2023-12-04T05:57:46;11.40;;;6.00;;
27632;SDS011;15046;50.930;13.334;2023-12-04T06:00:12;9.98;;;5.13;;
27632;SDS011;15046;50.930;13.334;2023-12-04T06:02:41;9.38;;;5.20;;
27632;SDS011;15046;50.930;13.334;2023-12-04T06:05:08;11.52;;;6.32;;
27632;SDS011;15046;50.930;13.334;2023-12-04T06:07:35;10.57;;;5.47;;
27632;SDS011;15046;50.930;13.334;2023-12-04T06:10:01;10.18;;;5.32;;
27632;SDS011;15046;50.930;13.334;2023-12-04T06:12:29;8.88;;;4.80;;
27632;SDS011;15046;50.930;13.334;2023-12-04T06:14:55;8.98;;;5.30;;
27632;SDS011;15046;50.930;13.334;2023-12-04T06:17:23;10.75;;;5.25;;
27632;SDS011;15046;50.930;13.334;2023-12-04T06:19:49;10.07;;;5.32;;
27632;SDS011;15046;50.930;13.334;2023-12-04T06:22:15;10.00;;;5.20;;
27632;SDS011;15046;50.930;13.334;2023-12-04T06:24:43;8.43;;;4.72;;
27632;SDS011;15046;50.930;13.334;2023-12-04T06:27:10;9.85;;;5.47;;
27632;SDS011;15046;50.930;13.334;2023-12-04T06:29:40;9.38;;;4.97;;
27632;SDS011;15046;50.930;13.334;2023-12-04T06:32:06;7.80;;;4.45;;
27632;SDS011;15046;50.930;13.334;2023-12-04T06:34:32;10.25;;;4.68;;
27632;SDS011;15046;50.930;13.334;2023-12-04T06:36:59;9.00;;;5.28;;
27632;SDS011;15046;50.930;13.334;2023-12-04T06:39:26;9.15;;;5.40;;
27632;SDS011;15046;50.930;13.334;2023-12-04T06:41:57;10.48;;;5.57;;
27632;SDS011;15046;50.930;13.334;2023-12-04T06:44:24;9.18;;;5.00;;
27632;SDS011;15046;50.930;13.334;2023-12-04T06:46:50;9.60;;;5.13;;
27632;SDS011;15046;50.930;13.334;2023-12-04T06:49:17;11.05;;;5.60;;
27632;SDS011;15046;50.930;13.334;2023-12-04T06:51:44;8.52;;;4.90;;
27632;SDS011;15046;50.930;13.334;2023-12-04T06:54:10;11.82;;;5.90;;
27632;SDS011;15046;50.930;13.334;2023-12-04T06:56:37;9.50;;;4.97;;
27632;SDS011;15046;50.930;13.334;2023-12-04T06:59:05;8.05;;;4.53;;
27632;SDS011;15046;50.930;13.334;2023-12-04T07:01:30;9.15;;;4.90;;
27632;SDS011;15046;50.930;13.334;2023-12-04T07:03:56;8.85;;;5.03;;
27632;SDS011;15046;50.930;13.334;2023-12-04T07:06:22;11.18;;;5.07;;
27632;SDS011;15046;50.930;13.334;2023-12-04T07:08:48;9.20;;;4.78;;
27632;SDS011;15046;50.930;13.334;2023-12-04T07:11:14;9.30;;;4.32;;
27632;SDS011;15046;50.930;13.334;2023-12-04T07:13:40;9.45;;;4.47;;
27632;SDS011;15046;50.930;13.334;2023-12-04T07:16:07;9.18;;;4.55;;
27632;SDS011;15046;50.930;13.334;2023-12-04T07:18:34;11.38;;;5.10;;
27632;SDS011;15046;50.930;13.334;2023-12-04T07:21:00;8.95;;;4.72;;
27632;SDS011;15046;50.930;13.334;2023-12-04T07:23:25;9.00;;;4.65;;
27632;SDS011;15046;50.930;13.334;2023-12-04T07:25:51;9.07;;;4.38;;
27632;SDS011;15046;50.930;13.334;2023-12-04T07:28:17;8.23;;;3.85;;
27632;SDS011;15046;50.930;13.334;2023-12-04T07:30:43;7.72;;;4.43;;
27632;SDS011;15046;50.930;13.334;2023-12-04T07:33:09;9.60;;;4.90;;
27632;SDS011;15046;50.930;13.334;2023-12-04T07:35:35;9.75;;;4.80;;
27632;SDS011;15046;50.930;13.334;2023-12-04T07:38:01;7.75;;;4.35;;
27632;SDS011;15046;50.930;13.334;2023-12-04T07:40:28;7.53;;;4.68;;
27632;SDS011;15046;50.930;13.334;2023-12-04T07:42:53;9.77;;;4.88;;
27632;SDS011;15046;50.930;13.334;2023-12-04T07:45:19;9.70;;;5.00;;
27632;SDS011;15046;50.930;13.334;2023-12-04T07:47:46;10.23;;;5.43;;
27632;SDS011;15046;50.930;13.334;2023-12-04T07:50:12;10.18;;;4.57;;
27632;SDS011;15046;50.930;13.334;2023-12-04T07:52:37;8.60;;;4.30;;
27632;SDS011;15046;50.930;13.334;2023-12-04T07:55:03;9.60;;;4.78;;
27632;SDS011;15046;50.930;13.334;2023-12-04T07:57:29;11.23;;;5.35;;
27632;SDS011;15046;50.930;13.334;2023-12-04T07:59:55;8.25;;;4.18;;
27632;SDS011;15046;50.930;13.334;2023-12-04T08:02:21;9.77;;;5.30;;
27632;SDS011;15046;50.930;13.334;2023-12-04T08:04:47;7.93;;;4.50;;
27632;SDS011;15046;50.930;13.334;2023-12-04T08:07:13;9.35;;;4.80;;
27632;SDS011;15046;50.930;13.334;2023-12-04T08:09:40;9.98;;;4.97;;
27632;SDS011;15046;50.930;13.334;2023-12-04T08:12:06;10.20;;;4.78;;
27632;SDS011;15046;50.930;13.334;2023-12-04T08:14:32;7.68;;;4.45;;
27632;SDS011;15046;50.930;13.334;2023-12-04T08:16:58;8.45;;;4.80;;
27632;SDS011;15046;50.930;13.334;2023-12-04T08:19:24;11.05;;;4.70;;
27632;SDS011;15046;50.930;13.334;2023-12-04T08:21:50;8.80;;;4.47;;
27632;SDS011;15046;50.930;13.334;2023-12-04T08:24:16;7.97;;;4.03;;
27632;SDS011;15046;50.930;13.334;2023-12-04T08:26:44;8.48;;;4.78;;
27632;SDS011;15046;50.930;13.334;2023-12-04T08:29:11;8.93;;;4.13;;
27632;SDS011;15046;50.930;13.334;2023-12-04T08:31:36;6.93;;;3.60;;
27632;SDS011;15046;50.930;13.334;2023-12-04T08:34:02;6.72;;;3.28;;
27632;SDS011;15046;50.930;13.334;2023-12-04T08:36:28;8.27;;;3.75;;
27632;SDS011;15046;50.930;13.334;2023-12-04T08:38:54;6.60;;;3.53;;
27632;SDS011;15046;50.930;13.334;2023-12-04T08:41:19;6.55;;;3.33;;
27632;SDS011;15046;50.930;13.334;2023-12-04T08:43:45;6.75;;;3.80;;
27632;SDS011;15046;50.930;13.334;2023-12-04T08:46:12;8.73;;;4.43;;
27632;SDS011;15046;50.930;13.334;2023-12-04T08:48:39;7.20;;;3.60;;
27632;SDS011;15046;50.930;13.334;2023-12-04T08:51:05;9.80;;;4.68;;
27632;SDS011;15046;50.930;13.334;2023-12-04T08:53:33;8.48;;;4.40;;
27632;SDS011;15046;50.930;13.334;2023-12-04T08:55:59;9.00;;;3.90;;
27632;SDS011;15046;50.930;13.334;2023-12-04T08:58:25;8.10;;;3.85;;
27632;SDS011;15046;50.930;13.334;2023-12-04T09:00:51;10.45;;;3.85;;
27632;SDS011;15046;50.930;13.334;2023-12-04T09:03:16;6.55;;;3.28;;
27632;SDS011;15046;50.930;13.334;2023-12-04T09:05:44;7.43;;;3.97;;
27632;SDS011;15046;50.930;13.334;2023-12-04T09:08:10;8.15;;;3.97;;
27632;SDS011;15046;50.930;13.334;2023-12-04T09:10:35;6.55;;;3.80;;
27632;SDS011;15046;50.930;13.334;2023-12-04T09:13:01;8.32;;;4.30;;
27632;SDS011;15046;50.930;13.334;2023-12-04T09:15:27;8.50;;;4.10;;
27632;SDS011;15046;50.930;13.334;2023-12-04T09:17:53;7.85;;;3.80;;
27632;SDS011;15046;50.930;13.334;2023-12-04T09:20:18;8.50;;;3.60;;
27632;SDS011;15046;50.930;13.334;2023-12-04T09:22:44;6.75;;;3.30;;
27632;SDS011;15046;50.930;13.334;2023-12-04T09:25:10;8.15;;;3.97;;
27632;SDS011;15046;50.930;13.334;2023-12-04T09:27:36;6.38;;;3.28;;
27632;SDS011;15046;50.930;13.334;2023-12-04T09:30:02;6.65;;;3.33;;
27632;SDS011;15046;50.930;13.334;2023-12-04T09:32:28;6.95;;;3.55;;
27632;SDS011;15046;50.930;13.334;2023-12-04T09:34:53;7.78;;;3.90;;
27632;SDS011;15046;50.930;13.334;2023-12-04T09:37:19;6.65;;;3.53;;
27632;SDS011;15046;50.930;13.334;2023-12-04T09:39:45;8.10;;;3.55;;
27632;SDS011;15046;50.930;13.334;2023-12-04T09:42:13;6.88;;;3.70;;
27632;SDS011;15046;50.930;13.334;2023-12-04T09:44:39;5.65;;;3.13;;
27632;SDS011;15046;50.930;13.334;2023-12-04T09:47:05;5.75;;;3.10;;
27632;SDS011;15046;50.930;13.334;2023-12-04T09:49:32;5.75;;;2.88;;
27632;SDS011;15046;50.930;13.334;2023-12-04T09:51:58;6.25;;;3.47;;
27632;SDS011;15046;50.930;13.334;2023-12-04T09:54:27;6.78;;;3.88;;
27632;SDS011;15046;50.930;13.334;2023-12-04T09:56:55;6.30;;;3.25;;
27632;SDS011;15046;50.930;13.334;2023-12-04T09:59:22;5.20;;;2.83;;
27632;SDS011;15046;50.930;13.334;2023-12-04T10:04:41;5.18;;;2.88;;
27632;SDS011;15046;50.930;13.334;2023-12-04T10:07:08;5.82;;;3.22;;
27632;SDS011;15046;50.930;13.334;2023-12-04T10:09:33;6.53;;;2.95;;
27632;SDS011;15046;50.930;13.334;2023-12-04T10:11:59;5.78;;;3.25;;
27632;SDS011;15046;50.930;13.334;2023-12-04T10:14:25;5.78;;;2.95;;
27632;SDS011;15046;50.930;13.334;2023-12-04T10:16:51;5.80;;;3.00;;
27632;SDS011;15046;50.930;13.334;2023-12-04T10:19:24;6.20;;;3.17;;
27632;SDS011;15046;50.930;13.334;2023-12-04T10:21:51;5.50;;;2.90;;
27632;SDS011;15046;50.930;13.334;2023-12-04T10:24:27;6.13;;;2.90;;
27632;SDS011;15046;50.930;13.334;2023-12-04T10:26:57;6.32;;;3.38;;
27632;SDS011;15046;50.930;13.334;2023-12-04T10:29:23;7.20;;;3.70;;
27632;SDS011;15046;50.930;13.334;2023-12-04T10:31:51;6.97;;;3.95;;
27632;SDS011;15046;50.930;13.334;2023-12-04T10:34:18;6.88;;;3.72;;
27632;SDS011;15046;50.930;13.334;2023-12-04T10:36:44;7.32;;;3.65;;
27632;SDS011;15046;50.930;13.334;2023-12-04T10:39:11;6.93;;;3.55;;
27632;SDS011;15046;50.930;13.334;2023-12-04T10:41:38;5.38;;;3.08;;
27632;SDS011;15046;50.930;13.334;2023-12-04T10:44:04;7.22;;;3.85;;
27632;SDS011;15046;50.930;13.334;2023-12-04T10:46:30;6.63;;;3.40;;
27632;SDS011;15046;50.930;13.334;2023-12-04T10:48:56;6.80;;;3.47;;
27632;SDS011;15046;50.930;13.334;2023-12-04T10:51:23;6.95;;;3.40;;
27632;SDS011;15046;50.930;13.334;2023-12-04T10:53:51;8.15;;;3.53;;
27632;SDS011;15046;50.930;13.334;2023-12-04T10:56:24;8.80;;;3.65;;
27632;SDS011;15046;50.930;13.334;2023-12-04T10:58:55;6.97;;;3.80;;
27632;SDS011;15046;50.930;13.334;2023-12-04T11:01:25;9.38;;;3.60;;
27632;SDS011;15046;50.930;13.334;2023-12-04T11:03:52;8.70;;;3.80;;
27632;SDS011;15046;50.930;13.334;2023-12-04T11:06:20;8.27;;;3.35;;
27632;SDS011;15046;50.930;13.334;2023-12-04T11:08:49;7.10;;;3.55;;
27632;SDS011;15046;50.930;13.334;2023-12-04T11:11:20;6.88;;;3.85;;
27632;SDS011;15046;50.930;13.334;2023-12-04T11:13:54;7.35;;;3.47;;
27632;SDS011;15046;50.930;13.334;2023-12-04T11:21:42;8.60;;;3.67;;
27632;SDS011;15046;50.930;13.334;2023-12-04T11:24:11;7.75;;;3.33;;
27632;SDS011;15046;50.930;13.334;2023-12-04T11:26:38;6.68;;;3.28;;
27632;SDS011;15046;50.930;13.334;2023-12-04T11:29:08;10.57;;;3.47;;
27632;SDS011;15046;50.930;13.334;2023-12-04T11:31:39;5.25;;;2.47;;
27632;SDS011;15046;50.930;13.334;2023-12-04T11:34:07;8.88;;;3.90;;
27632;SDS011;15046;50.930;13.334;2023-12-04T11:36:37;6.25;;;2.92;;
27632;SDS011;15046;50.930;13.334;2023-12-04T11:39:03;8.20;;;3.65;;
27632;SDS011;15046;50.930;13.334;2023-12-04T11:41:30;4.55;;;2.38;;
27632;SDS011;15046;50.930;13.334;2023-12-04T11:43:56;5.70;;;2.72;;
27632;SDS011;15046;50.930;13.334;2023-12-04T11:46:23;6.40;;;2.70;;
27632;SDS011;15046;50.930;13.334;2023-12-04T11:48:51;7.35;;;2.88;;
27632;SDS011;15046;50.930;13.334;2023-12-04T11:54:04;7.50;;;3.65;;
27632;SDS011;15046;50.930;13.334;2023-12-04T11:56:33;8.63;;;3.50;;
27632;SDS011;15046;50.930;13.334;2023-12-04T11:59:03;6.93;;;3.08;;
27632;SDS011;15046;50.930;13.334;2023-12-04T12:04:05;5.72;;;3.15;;
27632;SDS011;15046;50.930;13.334;2023-12-04T12:06:31;5.68;;;3.00;;
27632;SDS011;15046;50.930;13.334;2023-12-04T12:08:57;5.43;;;2.83;;
27632;SDS011;15046;50.930;13.334;2023-12-04T12:11:23;4.45;;;2.42;;
27632;SDS011;15046;50.930;13.334;2023-12-04T12:13:49;4.60;;;2.50;;
27632;SDS011;15046;50.930;13.334;2023-12-04T12:16:17;5.93;;;3.10;;
27632;SDS011;15046;50.930;13.334;2023-12-04T12:18:43;4.82;;;2.42;;
27632;SDS011;15046;50.930;13.334;2023-12-04T12:21:09;4.50;;;1.83;;
27632;SDS011;15046;50.930;13.334;2023-12-04T12:23:35;3.95;;;1.95;;
27632;SDS011;15046;50.930;13.334;2023-12-04T12:26:01;6.82;;;2.50;;
27632;SDS011;15046;50.930;13.334;2023-12-04T12:28:28;4.65;;;2.33;;
27632;SDS011;15046;50.930;13.334;2023-12-04T12:30:54;4.43;;;2.33;;
27632;SDS011;15046;50.930;13.334;2023-12-04T12:33:20;6.00;;;2.20;;
27632;SDS011;15046;50.930;13.334;2023-12-04T12:35:48;5.45;;;1.98;;
27632;SDS011;15046;50.930;13.334;2023-12-04T12:38:14;3.45;;;2.05;;
27632;SDS011;15046;50.930;13.334;2023-12-04T12:40:40;4.18;;;1.88;;
27632;SDS011;15046;50.930;13.334;2023-12-04T12:43:07;5.60;;;2.30;;
27632;SDS011;15046;50.930;13.334;2023-12-04T12:45:41;5.07;;;2.40;;
27632;SDS011;15046;50.930;13.334;2023-12-04T12:48:12;4.78;;;2.22;;
27632;SDS011;15046;50.930;13.334;2023-12-04T12:50:38;7.07;;;2.88;;
27632;SDS011;15046;50.930;13.334;2023-12-04T12:53:04;5.50;;;2.80;;
27632;SDS011;15046;50.930;13.334;2023-12-04T12:55:30;7.28;;;2.90;;
27632;SDS011;15046;50.930;13.334;2023-12-04T12:57:56;6.38;;;2.75;;
27632;SDS011;15046;50.930;13.334;2023-12-04T13:00:22;5.28;;;2.97;;
27632;SDS011;15046;50.930;13.334;2023-12-04T13:02:48;5.43;;;2.50;;
27632;SDS011;15046;50.930;13.334;2023-12-04T13:05:17;5.55;;;2.70;;
27632;SDS011;15046;50.930;13.334;2023-12-04T13:07:44;5.35;;;2.60;;
27632;SDS011;15046;50.930;13.334;2023-12-04T13:10:11;5.97;;;2.85;;
27632;SDS011;15046;50.930;13.334;2023-12-04T13:12:36;6.72;;;2.95;;
27632;SDS011;15046;50.930;13.334;2023-12-04T13:15:02;5.80;;;3.17;;
27632;SDS011;15046;50.930;13.334;2023-12-04T13:17:29;5.28;;;2.53;;
27632;SDS011;15046;50.930;13.334;2023-12-04T13:19:54;6.00;;;3.03;;
27632;SDS011;15046;50.930;13.334;2023-12-04T13:22:20;6.93;;;3.10;;
27632;SDS011;15046;50.930;13.334;2023-12-04T13:24:46;6.85;;;2.90;;
27632;SDS011;15046;50.930;13.334;2023-12-04T13:27:12;7.30;;;4.38;;
27632;SDS011;15046;50.930;13.334;2023-12-04T13:29:38;6.00;;;2.97;;
27632;SDS011;15046;50.930;13.334;2023-12-04T13:32:04;7.38;;;3.05;;
27632;SDS011;15046;50.930;13.334;2023-12-04T13:34:32;7.20;;;3.40;;
27632;SDS011;15046;50.930;13.334;2023-12-04T13:36:58;6.97;;;3.13;;
27632;SDS011;15046;50.930;13.334;2023-12-04T13:39:24;7.05;;;3.38;;
27632;SDS011;15046;50.930;13.334;2023-12-04T13:42:12;5.80;;;2.72;;
27632;SDS011;15046;50.930;13.334;2023-12-04T13:44:59;5.80;;;2.78;;
27632;SDS011;15046;50.930;13.334;2023-12-04T13:47:27;5.75;;;3.05;;
27632;SDS011;15046;50.930;13.334;2023-12-04T13:49:53;5.60;;;3.03;;
27632;SDS011;15046;50.930;13.334;2023-12-04T13:52:20;6.53;;;3.10;;
27632;SDS011;15046;50.930;13.334;2023-12-04T13:54:48;6.32;;;3.30;;
27632;SDS011;15046;50.930;13.334;2023-12-04T13:57:15;7.25;;;3.15;;
27632;SDS011;15046;50.930;13.334;2023-12-04T14:00:04;6.90;;;3.17;;
27632;SDS011;15046;50.930;13.334;2023-12-04T14:02:31;6.50;;;3.25;;
27632;SDS011;15046;50.930;13.334;2023-12-04T14:04:56;7.57;;;3.45;;
27632;SDS011;15046;50.930;13.334;2023-12-04T14:07:22;9.05;;;4.63;;
27632;SDS011;15046;50.930;13.334;2023-12-04T14:09:49;8.40;;;4.53;;
27632;SDS011;15046;50.930;13.334;2023-12-04T14:12:15;27.42;;;10.15;;
27632;SDS011;15046;50.930;13.334;2023-12-04T14:14:41;10.90;;;5.32;;
27632;SDS011;15046;50.930;13.334;2023-12-04T14:17:07;9.05;;;4.05;;
27632;SDS011;15046;50.930;13.334;2023-12-04T14:19:34;9.27;;;3.83;;
27632;SDS011;15046;50.930;13.334;2023-12-04T14:21:59;7.60;;;4.15;;
27632;SDS011;15046;50.930;13.334;2023-12-04T14:24:25;8.43;;;4.10;;
27632;SDS011;15046;50.930;13.334;2023-12-04T14:26:51;8.13;;;4.43;;
27632;SDS011;15046;50.930;13.334;2023-12-04T14:29:18;8.95;;;4.57;;
27632;SDS011;15046;50.930;13.334;2023-12-04T14:31:44;10.55;;;4.35;;
27632;SDS011;15046;50.930;13.334;2023-12-04T14:34:11;7.93;;;4.35;;
27632;SDS011;15046;50.930;13.334;2023-12-04T14:36:37;9.10;;;4.88;;
27632;SDS011;15046;50.930;13.334;2023-12-04T14:39:03;9.35;;;4.47;;